Time,TemperatureF,DewpointF,PressureIn,WindDirection,WindDirectionDegrees,WindSpeedMPH,WindSpeedGustMPH,Humidity,HourlyPrecipIn,Conditions,Clouds,dailyrainin,SoftwareType,DateUTC
2013-03-09 00:10:00,28.0,26.0,30.18,SSE,160,0.0,1.0,90,0.00,,,0.00,weatherlink.com 1.10,2013-03-09 05:10:00,
2013-03-09 00:25:00,27.8,25.0,30.18,SE,144,0.0,0.0,90,0.00,,,0.00,weatherlink.com 1.10,2013-03-09 05:25:00,
2013-03-09 00:40:00,28.0,25.0,30.19,SSE,150,0.0,1.0,89,0.00,,,0.00,weatherlink.com 1.10,2013-03-09 05:40:00,
2013-03-09 00:55:00,27.5,25.0,30.19,SSE,151,0.0,1.0,91,0.00,,,0.00,weatherlink.com 1.10,2013-03-09 05:55:00,
2013-03-09 01:10:00,27.6,25.0,30.19,SSE,150,0.0,0.0,91,0.00,,,0.00,weatherlink.com 1.10,2013-03-09 06:10:00,
2013-03-09 01:25:00,28.3,26.0,30.19,East,98,0.0,1.0,89,0.00,,,0.00,weatherlink.com 1.10,2013-03-09 06:25:00,
2013-03-09 01:40:00,27.1,25.0,30.19,SW,229,0.0,0.0,91,0.00,,,0.00,weatherlink.com 1.10,2013-03-09 06:40:00,
2013-03-09 01:55:00,26.7,24.0,30.19,SW,229,0.0,0.0,90,0.00,,,0.00,weatherlink.com 1.10,2013-03-09 06:55:00,
2013-03-09 02:10:00,27.0,25.0,30.18,SE,131,0.0,1.0,90,0.00,,,0.00,weatherlink.com 1.10,2013-03-09 07:10:00,
2013-03-09 02:25:00,26.3,25.0,30.18,North,352,0.0,1.0,93,0.00,,,0.00,weatherlink.com 1.10,2013-03-09 07:25:00,
2013-03-09 02:40:00,26.5,24.0,30.17,North,351,0.0,1.0,90,0.00,,,0.00,weatherlink.com 1.10,2013-03-09 07:40:00,
2013-03-09 02:55:00,24.6,23.0,30.18,North,352,0.0,0.0,92,0.00,,,0.00,weatherlink.com 1.10,2013-03-09 07:55:00,
2013-03-09 03:10:00,24.8,23.0,30.17,North,354,0.0,0.0,94,0.00,,,0.00,weatherlink.com 1.10,2013-03-09 08:10:00,
2013-03-09 03:25:00,24.6,23.0,30.17,SE,144,0.0,1.0,93,0.00,,,0.00,weatherlink.com 1.10,2013-03-09 08:25:00,
2013-03-09 03:40:00,23.2,22.0,30.18,SW,224,0.0,1.0,93,0.00,,,0.00,weatherlink.com 1.10,2013-03-09 08:40:00,
2013-03-09 03:55:00,24.2,23.0,30.19,East,86,1.0,1.0,94,0.00,,,0.00,weatherlink.com 1.10,2013-03-09 08:55:00,
2013-03-09 04:10:00,23.2,22.0,30.18,ENE,78,0.0,1.0,93,0.00,,,0.00,weatherlink.com 1.10,2013-03-09 09:10:00,
2013-03-09 04:25:00,22.4,21.0,30.19,ENE,75,0.0,1.0,93,0.00,,,0.00,weatherlink.com 1.10,2013-03-09 09:25:00,
2013-03-09 04:40:00,21.9,20.0,30.20,South,170,1.0,1.0,93,0.00,,,0.00,weatherlink.com 1.10,2013-03-09 09:40:00,
2013-03-09 04:55:00,22.4,21.0,30.20,SSE,159,0.0,1.0,94,0.00,,,0.00,weatherlink.com 1.10,2013-03-09 09:55:00,
2013-03-09 05:10:00,22.7,21.0,30.21,SSE,159,0.0,1.0,94,0.00,,,0.00,weatherlink.com 1.10,2013-03-09 10:10:00,
2013-03-09 05:25:00,21.5,20.0,30.22,SE,131,0.0,2.0,93,0.00,,,0.00,weatherlink.com 1.10,2013-03-09 10:25:00,
2013-03-09 05:40:00,21.3,20.0,30.21,South,184,0.0,1.0,93,0.00,,,0.00,weatherlink.com 1.10,2013-03-09 10:40:00,
2013-03-09 05:55:00,21.2,20.0,30.22,NE,44,0.0,1.0,94,0.00,,,0.00,weatherlink.com 1.10,2013-03-09 10:55:00,
2013-03-09 06:10:00,21.2,20.0,30.23,NE,34,0.0,1.0,93,0.00,,,0.00,weatherlink.com 1.10,2013-03-09 11:10:00,
2013-03-09 06:26:00,20.4,19.0,30.23,NE,34,0.0,0.0,93,0.00,,,0.00,weatherlink.com 1.10,2013-03-09 11:26:00,
2013-03-09 06:41:00,22.4,21.0,30.24,NE,36,0.0,1.0,94,0.00,,,0.00,weatherlink.com 1.10,2013-03-09 11:41:00,
2013-03-09 06:56:00,24.2,22.0,30.24,NE,36,0.0,0.0,92,0.00,,,0.00,weatherlink.com 1.10,2013-03-09 11:56:00,
2013-03-09 07:11:00,25.8,23.0,30.25,South,172,0.0,1.0,88,0.00,,,0.00,weatherlink.com 1.10,2013-03-09 12:11:00,
2013-03-09 07:26:00,28.1,25.0,30.25,SSE,156,0.0,1.0,87,0.00,,,0.00,weatherlink.com 1.10,2013-03-09 12:26:00,
2013-03-09 07:41:00,31.4,27.0,30.25,ESE,117,0.0,0.0,84,0.00,,,0.00,weatherlink.com 1.10,2013-03-09 12:41:00,
2013-03-09 07:56:00,32.2,27.0,30.24,NW,322,1.0,3.0,80,0.00,,,0.00,weatherlink.com 1.10,2013-03-09 12:56:00,
2013-03-09 08:11:00,33.3,27.0,30.24,NE,43,0.0,5.0,77,0.00,,,0.00,weatherlink.com 1.10,2013-03-09 13:11:00,
2013-03-09 08:26:00,35.1,27.0,30.25,NE,44,0.0,7.0,73,0.00,,,0.00,weatherlink.com 1.10,2013-03-09 13:26:00,
2013-03-09 08:41:00,36.3,27.0,30.25,NNW,347,0.0,9.0,69,0.00,,,0.00,weatherlink.com 1.10,2013-03-09 13:41:00,
2013-03-09 08:56:00,37.7,26.0,30.25,NE,34,1.0,6.0,62,0.01,,,0.01,weatherlink.com 1.10,2013-03-09 13:56:00,
2013-03-09 09:11:00,38.6,26.0,30.24,ENE,61,1.0,8.0,61,0.01,,,0.01,weatherlink.com 1.10,2013-03-09 14:11:00,
2013-03-09 09:26:00,39.6,26.0,30.24,NNE,25,4.0,9.0,59,0.01,,,0.01,weatherlink.com 1.10,2013-03-09 14:26:00,
2013-03-09 09:41:00,40.9,26.0,30.25,NNE,19,8.0,11.0,55,0.03,,,0.03,weatherlink.com 1.10,2013-03-09 14:41:00,
2013-03-09 09:56:00,41.4,25.0,30.25,NW,304,3.0,7.0,53,0.02,,,0.03,weatherlink.com 1.10,2013-03-09 14:56:00,
2013-03-09 10:11:00,41.9,24.0,30.25,North,349,5.0,10.0,49,0.04,,,0.05,weatherlink.com 1.10,2013-03-09 15:11:00,
2013-03-09 10:26:00,43.0,23.0,30.25,North,10,2.0,11.0,45,0.05,,,0.07,weatherlink.com 1.10,2013-03-09 15:26:00,
2013-03-09 10:41:00,44.8,23.0,30.25,NNE,29,2.0,7.0,43,0.06,,,0.09,weatherlink.com 1.10,2013-03-09 15:41:00,
2013-03-09 10:56:00,46.2,22.0,30.25,East,101,1.0,9.0,39,0.07,,,0.10,weatherlink.com 1.10,2013-03-09 15:56:00,
2013-03-09 11:11:00,46.8,21.0,30.25,NNW,345,4.0,9.0,36,0.07,,,0.12,weatherlink.com 1.10,2013-03-09 16:11:00,
2013-03-09 11:27:00,47.6,20.0,30.25,North,352,5.0,11.0,34,0.06,,,0.13,weatherlink.com 1.10,2013-03-09 16:27:00,
2013-03-09 11:42:00,48.2,19.0,30.25,North,356,4.0,10.0,31,0.06,,,0.15,weatherlink.com 1.10,2013-03-09 16:42:00,
2013-03-09 11:57:00,49.0,19.0,30.24,ENE,72,3.0,10.0,30,0.07,,,0.17,weatherlink.com 1.10,2013-03-09 16:57:00,
2013-03-09 12:12:00,49.9,19.0,30.24,NE,39,5.0,12.0,30,0.07,,,0.19,weatherlink.com 1.10,2013-03-09 17:12:00,
2013-03-09 12:27:00,50.1,18.0,30.23,NNE,16,8.0,17.0,28,0.07,,,0.20,weatherlink.com 1.10,2013-03-09 17:27:00,
2013-03-09 12:42:00,50.3,18.0,30.23,NW,314,2.0,8.0,28,0.05,,,0.20,weatherlink.com 1.10,2013-03-09 17:42:00,
2013-03-09 12:57:00,51.4,20.0,30.23,ENE,77,1.0,9.0,29,0.03,,,0.20,weatherlink.com 1.10,2013-03-09 17:57:00,
2013-03-09 13:12:00,51.5,19.0,30.22,NNE,29,2.0,14.0,28,0.01,,,0.20,weatherlink.com 1.10,2013-03-09 18:12:00,
2013-03-09 13:27:00,52.2,21.0,30.22,NNE,32,2.0,7.0,29,0.00,,,0.20,weatherlink.com 1.10,2013-03-09 18:27:00,
2013-03-09 13:42:00,52.7,19.0,30.21,NNE,29,3.0,10.0,27,0.00,,,0.20,weatherlink.com 1.10,2013-03-09 18:42:00,
2013-03-09 13:57:00,53.0,20.0,30.21,NNE,29,10.0,15.0,28,0.00,,,0.20,weatherlink.com 1.10,2013-03-09 18:57:00,
2013-03-09 14:12:00,53.3,19.0,30.21,NNW,342,4.0,13.0,26,0.00,,,0.20,weatherlink.com 1.10,2013-03-09 19:12:00,
2013-03-09 14:27:00,53.9,20.0,30.20,NNW,337,5.0,8.0,27,0.00,,,0.20,weatherlink.com 1.10,2013-03-09 19:27:00,
2013-03-09 14:42:00,54.5,20.0,30.20,NE,44,2.0,6.0,26,0.00,,,0.20,weatherlink.com 1.10,2013-03-09 19:42:00,
2013-03-09 14:57:00,54.8,20.0,30.20,NNE,16,2.0,7.0,26,0.00,,,0.20,weatherlink.com 1.10,2013-03-09 19:57:00,
2013-03-09 15:12:00,55.4,22.0,30.20,NNE,28,3.0,6.0,27,0.00,,,0.20,weatherlink.com 1.10,2013-03-09 20:12:00,
2013-03-09 15:27:00,55.3,19.0,30.20,NW,316,3.0,10.0,24,0.00,,,0.20,weatherlink.com 1.10,2013-03-09 20:27:00,
2013-03-09 15:42:00,55.3,19.0,30.21,NNE,18,3.0,12.0,24,0.00,,,0.20,weatherlink.com 1.10,2013-03-09 20:42:00,
2013-03-09 15:57:00,55.5,19.0,30.21,NW,326,4.0,7.0,24,0.00,,,0.20,weatherlink.com 1.10,2013-03-09 20:57:00,
2013-03-09 16:12:00,55.7,19.0,30.21,NNE,20,1.0,10.0,24,0.00,,,0.20,weatherlink.com 1.10,2013-03-09 21:12:00,
2013-03-09 16:27:00,55.7,19.0,30.22,NNE,30,2.0,7.0,24,0.00,,,0.20,weatherlink.com 1.10,2013-03-09 21:27:00,
2013-03-09 16:42:00,55.9,18.0,30.22,NNW,331,0.0,7.0,23,0.00,,,0.20,weatherlink.com 1.10,2013-03-09 21:42:00,
2013-03-09 16:57:00,55.6,18.0,30.22,NNE,20,1.0,3.0,23,0.00,,,0.20,weatherlink.com 1.10,2013-03-09 21:57:00,
2013-03-09 17:12:00,54.5,18.0,30.23,North,352,1.0,3.0,24,0.00,,,0.20,weatherlink.com 1.10,2013-03-09 22:12:00,
2013-03-09 17:27:00,53.2,19.0,30.23,NE,46,0.0,3.0,26,0.00,,,0.20,weatherlink.com 1.10,2013-03-09 22:27:00,
2013-03-09 17:42:00,50.9,20.0,30.23,North,9,0.0,1.0,29,0.00,,,0.20,weatherlink.com 1.10,2013-03-09 22:42:00,
2013-03-09 17:57:00,47.6,25.0,30.24,SSE,161,0.0,1.0,41,0.00,,,0.20,weatherlink.com 1.10,2013-03-09 22:57:00,
2013-03-09 18:14:00,44.7,24.0,30.24,WSW,257,0.0,1.0,44,0.00,,,0.20,weatherlink.com 1.10,2013-03-09 23:14:00,
2013-03-09 18:27:00,42.5,27.0,30.25,SSE,166,0.0,1.0,54,0.00,,,0.20,weatherlink.com 1.10,2013-03-09 23:27:00,
2013-03-09 18:42:00,40.8,24.0,30.26,NNE,15,0.0,1.0,52,0.00,,,0.20,weatherlink.com 1.10,2013-03-09 23:42:00,
2013-03-09 18:57:00,38.5,26.0,30.27,NNW,340,0.0,2.0,60,0.00,,,0.20,weatherlink.com 1.10,2013-03-09 23:57:00,
2013-03-09 19:12:00,37.8,26.0,30.27,North,355,0.0,1.0,62,0.00,,,0.20,weatherlink.com 1.10,2013-03-10 00:12:00,
2013-03-09 19:27:00,36.7,27.0,30.28,North,360,0.0,1.0,67,0.00,,,0.20,weatherlink.com 1.10,2013-03-10 00:27:00,
2013-03-09 19:42:00,35.9,26.0,30.28,East,79,1.0,1.0,68,0.00,,,0.20,weatherlink.com 1.10,2013-03-10 00:42:00,
2013-03-09 19:57:00,34.8,27.0,30.29,East,79,0.0,1.0,73,0.00,,,0.20,weatherlink.com 1.10,2013-03-10 00:57:00,
2013-03-09 20:12:00,34.1,26.0,30.29,NE,36,1.0,1.0,72,0.00,,,0.20,weatherlink.com 1.10,2013-03-10 01:12:00,
2013-03-09 20:27:00,34.6,26.0,30.30,SSE,153,0.0,1.0,70,0.00,,,0.20,weatherlink.com 1.10,2013-03-10 01:27:00,
2013-03-09 20:42:00,34.8,26.0,30.30,SSE,147,0.0,1.0,71,0.00,,,0.20,weatherlink.com 1.10,2013-03-10 01:42:00,
2013-03-09 20:57:00,33.3,25.0,30.30,NE,39,0.0,1.0,71,0.00,,,0.20,weatherlink.com 1.10,2013-03-10 01:57:00,
2013-03-09 21:13:00,32.8,25.0,30.31,NNE,18,1.0,1.0,74,0.00,,,0.20,weatherlink.com 1.10,2013-03-10 02:13:00,
2013-03-09 21:28:00,32.8,26.0,30.31,NNE,25,0.0,1.0,76,0.00,,,0.20,weatherlink.com 1.10,2013-03-10 02:28:00,
2013-03-09 21:43:00,34.1,27.0,30.31,East,89,0.0,2.0,74,0.00,,,0.20,weatherlink.com 1.10,2013-03-10 02:43:00,
2013-03-09 21:58:00,35.1,27.0,30.31,East,79,0.0,1.0,73,0.00,,,0.20,weatherlink.com 1.10,2013-03-10 02:58:00,
2013-03-09 22:13:00,33.9,26.0,30.31,East,82,0.0,1.0,74,0.00,,,0.20,weatherlink.com 1.10,2013-03-10 03:13:00,
2013-03-09 22:28:00,32.8,27.0,30.31,North,352,0.0,1.0,78,0.00,,,0.20,weatherlink.com 1.10,2013-03-10 03:28:00,
2013-03-09 22:43:00,32.0,26.0,30.31,North,351,0.0,1.0,79,0.00,,,0.20,weatherlink.com 1.10,2013-03-10 03:43:00,
2013-03-09 22:58:00,32.1,27.0,30.32,NNE,32,0.0,1.0,81,0.00,,,0.20,weatherlink.com 1.10,2013-03-10 03:58:00,
2013-03-09 23:13:00,32.2,26.0,30.33,ENE,75,0.0,2.0,79,0.00,,,0.20,weatherlink.com 1.10,2013-03-10 04:13:00,
2013-03-09 23:28:00,29.9,26.0,30.33,North,358,0.0,1.0,85,0.00,,,0.20,weatherlink.com 1.10,2013-03-10 04:28:00,
2013-03-09 23:43:00,29.1,25.0,30.34,NNW,340,1.0,2.0,84,0.00,,,0.20,weatherlink.com 1.10,2013-03-10 04:43:00,
2013-03-09 23:58:00,27.9,25.0,30.34,NNW,343,0.0,0.0,88,0.00,,,0.20,weatherlink.com 1.10,2013-03-10 04:58:00,